Terminal Aerodrome Forecast
Issued by NWS

Home | Current Version | Previous Version | Text Only | Print | Product List | Glossary On
Versions: 1 2 3 4 5 6 7 8 9 10 11 12 13 14 15 16 17 18 19 20
489
FTUS43 KIWX 261720
TAFSBN
TAF
KSBN 261720Z 2618/2718 21017G24KT P6SM SCT090
     FM270100 21010KT P6SM BKN080=

USA.gov is the U.S. government's official web portal to all federal, state and local government web resources and services.